createdAt,value
2019-04-22T00:00:06.717Z,10.47
2019-04-22T00:02:40.062Z,11.20
2019-04-22T00:05:13.169Z,9.23
2019-04-22T00:08:01.606Z,9.63
2019-04-22T00:10:32.204Z,11.43
2019-04-22T00:13:01.316Z,10.90
2019-04-22T00:15:21.482Z,12.73
2019-04-22T00:18:03.735Z,10.07
2019-04-22T00:20:22.760Z,10.77
2019-04-22T00:22:51.969Z,11.43
2019-04-22T00:25:28.548Z,9.80
2019-04-22T00:27:56.402Z,10.57
2019-04-22T00:30:20.692Z,10.40
2019-04-22T00:33:01.418Z,10.77
2019-04-22T00:35:23.797Z,11.20
2019-04-22T00:37:56.947Z,10.93
2019-04-22T00:40:32.307Z,11.40
2019-04-22T00:42:53.318Z,11.87
2019-04-22T00:45:30.530Z,12.33
2019-04-22T00:47:50.362Z,11.20
2019-04-22T00:50:26.790Z,11.47
2019-04-22T00:52:56.049Z,11.33
2019-04-22T00:55:23.069Z,12.00
2019-04-22T00:57:46.201Z,14.03
2019-04-22T01:00:18.093Z,11.87
2019-04-22T01:02:49.721Z,12.40
2019-04-22T01:07:45.102Z,12.57
2019-04-22T01:12:44.083Z,14.23
2019-04-22T01:15:17.455Z,12.50
2019-04-22T01:17:40.371Z,11.33
2019-04-22T01:20:25.233Z,12.20
2019-04-22T01:22:33.008Z,10.93
2019-04-22T01:25:06.856Z,11.60
2019-04-22T01:27:30.709Z,12.00
2019-04-22T01:29:59.798Z,11.97
2019-04-22T01:32:15.343Z,11.57
2019-04-22T01:34:52.720Z,10.77
2019-04-22T01:37:28.545Z,11.27
2019-04-22T01:40:05.412Z,16.33
2019-04-22T01:42:35.723Z,12.37
2019-04-22T01:45:00.767Z,11.47
2019-04-22T01:47:33.103Z,11.13
2019-04-22T01:49:59.592Z,12.70
2019-04-22T01:52:29.155Z,12.17
2019-04-22T01:55:04.432Z,13.97
2019-04-22T01:57:22.832Z,11.63
2019-04-22T01:59:45.734Z,12.00
2019-04-22T02:02:27.240Z,13.13
2019-04-22T02:07:25.410Z,12.10
2019-04-22T02:12:19.582Z,13.03
2019-04-22T02:14:52.362Z,16.97
2019-04-22T02:17:26.490Z,13.23
2019-04-22T02:19:53.101Z,17.73
2019-04-22T02:22:28.977Z,11.30
2019-04-22T02:24:50.917Z,11.40
2019-04-22T02:27:17.374Z,13.37
2019-04-22T02:39:50.478Z,11.40
2019-04-22T02:44:44.843Z,10.37
2019-04-22T02:47:15.678Z,13.37
2019-04-22T02:49:41.259Z,10.60
2019-04-22T02:54:49.384Z,11.70
2019-04-22T02:57:13.158Z,12.00
2019-04-22T02:59:43.102Z,15.10
2019-04-22T03:02:07.200Z,11.73
2019-04-22T03:04:32.314Z,11.23
2019-04-22T03:06:55.962Z,11.03
2019-04-22T03:12:14.275Z,10.67
2019-04-22T03:14:38.119Z,15.93
2019-04-22T03:16:57.394Z,11.63
2019-04-22T03:19:48.183Z,11.27
2019-04-22T03:22:00.547Z,12.53
2019-04-22T03:24:38.167Z,14.00
2019-04-22T03:29:58.704Z,11.33
2019-04-22T03:32:40.368Z,12.33
2019-04-22T03:37:35.719Z,16.77
2019-04-22T03:42:13.518Z,10.47
2019-04-22T03:45:00.607Z,11.80
2019-04-22T03:52:11.197Z,11.37
2019-04-22T04:04:37.206Z,12.43
2019-04-22T04:09:34.264Z,12.57
2019-04-22T04:12:04.436Z,11.70
2019-04-22T04:14:37.274Z,13.97
2019-04-22T04:17:02.388Z,15.97
2019-04-22T04:19:38.759Z,18.10
2019-04-22T04:21:57.614Z,12.20
2019-04-22T04:24:48.006Z,14.47
2019-04-22T04:27:07.597Z,11.53
2019-04-22T04:32:07.242Z,12.30
2019-04-22T04:37:17.891Z,12.40
2019-04-22T04:39:28.842Z,10.90
2019-04-22T04:41:54.608Z,12.73
2019-04-22T04:44:29.648Z,11.63
2019-04-22T04:49:24.227Z,11.33
2019-04-22T04:51:51.304Z,11.60
2019-04-22T04:59:41.174Z,11.53
2019-04-22T05:01:46.769Z,11.10
2019-04-22T05:04:14.187Z,12.30
2019-04-22T05:09:16.754Z,11.40
2019-04-22T05:11:46.131Z,14.77
2019-04-22T05:19:22.531Z,13.73
2019-04-22T05:26:34.194Z,13.60
2019-04-22T05:29:03.712Z,13.70
2019-04-22T05:31:34.026Z,15.60
2019-04-22T05:33:56.263Z,14.30
2019-04-22T05:36:28.247Z,14.93
2019-04-22T05:38:53.563Z,14.07
2019-04-22T05:41:26.925Z,14.70
2019-04-22T05:43:50.293Z,16.63
2019-04-22T05:46:20.483Z,16.40
2019-04-22T05:48:54.244Z,14.40
2019-04-22T05:51:18.062Z,14.13
2019-04-22T05:53:47.991Z,13.33
2019-04-22T05:56:28.752Z,16.33
2019-04-22T05:58:54.097Z,14.13
2019-04-22T06:01:38.509Z,13.73
2019-04-22T06:03:50.917Z,15.17
2019-04-22T06:06:13.697Z,14.60
2019-04-22T06:08:48.580Z,13.63
2019-04-22T06:11:17.119Z,14.50
2019-04-22T06:13:36.669Z,14.13
2019-04-22T06:16:09.259Z,15.30
2019-04-22T06:18:39.645Z,16.53
2019-04-22T06:21:11.518Z,13.37
2019-04-22T06:28:40.771Z,15.03
2019-04-22T06:31:11.767Z,14.80
2019-04-22T06:33:34.500Z,13.20
2019-04-22T06:38:34.062Z,14.27
2019-04-22T06:41:10.074Z,14.43
2019-04-22T06:43:35.486Z,13.50
2019-04-22T06:46:00.777Z,12.67
2019-04-22T06:48:33.070Z,17.33
2019-04-22T06:51:00.069Z,12.00
2019-04-22T06:53:29.725Z,14.33
2019-04-22T06:58:43.670Z,12.93
2019-04-22T07:00:55.768Z,13.73
2019-04-22T07:05:54.675Z,11.63
2019-04-22T07:09:02.338Z,11.17
2019-04-22T07:10:50.625Z,11.23
2019-04-22T07:13:23.268Z,12.33
2019-04-22T07:18:25.058Z,12.27
2019-04-22T07:20:51.126Z,11.80
2019-04-22T07:23:25.917Z,11.57
2019-04-22T07:25:45.298Z,11.60
2019-04-22T07:28:17.826Z,10.47
2019-04-22T07:30:44.759Z,10.70
2019-04-22T07:33:34.900Z,10.83
2019-04-22T07:38:17.579Z,10.93
2019-04-22T07:40:48.782Z,9.63
2019-04-22T07:43:13.749Z,10.20
2019-04-22T07:45:45.714Z,11.63
2019-04-22T07:48:22.278Z,9.53
2019-04-22T07:50:50.638Z,11.37
2019-04-22T07:53:08.454Z,12.40
2019-04-22T07:55:32.786Z,9.23
2019-04-22T07:58:05.264Z,11.10
2019-04-22T08:00:34.293Z,15.37
2019-04-22T08:03:07.696Z,11.63
2019-04-22T08:08:10.954Z,9.77
2019-04-22T08:10:40.306Z,10.00
2019-04-22T08:13:05.180Z,11.37
2019-04-22T08:15:32.996Z,10.07
2019-04-22T08:18:01.635Z,11.60
2019-04-22T08:20:35.022Z,11.20
2019-04-22T08:23:04.754Z,9.60
2019-04-22T08:25:37.606Z,9.27
2019-04-22T08:28:03.336Z,10.17
2019-04-22T08:30:34.901Z,11.60
2019-04-22T08:33:04.792Z,8.80
2019-04-22T08:35:40.934Z,12.10
2019-04-22T08:38:09.633Z,10.60
2019-04-22T08:43:07.271Z,8.80
2019-04-22T08:45:38.929Z,8.47
2019-04-22T08:47:54.836Z,7.93
2019-04-22T08:50:29.477Z,9.40
2019-04-22T08:52:57.564Z,8.63
2019-04-22T08:55:28.933Z,10.90
2019-04-22T08:58:13.023Z,11.50
2019-04-22T09:00:27.998Z,8.97
2019-04-22T09:02:55.213Z,8.80
2019-04-22T09:05:37.120Z,10.73
2019-04-22T09:08:07.485Z,8.70
2019-04-22T09:10:22.239Z,10.50
2019-04-22T09:12:57.678Z,9.30
2019-04-22T09:15:20.488Z,9.70
2019-04-22T09:17:47.739Z,8.53
2019-04-22T09:20:16.374Z,8.93
2019-04-22T09:22:41.172Z,8.70
2019-04-22T09:25:08.433Z,7.63
2019-04-22T09:27:42.931Z,8.47
2019-04-22T09:30:15.546Z,10.00
2019-04-22T09:35:29.102Z,8.47
2019-04-22T09:37:38.972Z,9.00
2019-04-22T09:40:12.250Z,8.00
2019-04-22T09:42:39.649Z,7.00
2019-04-22T09:45:06.091Z,12.63
2019-04-22T09:47:37.253Z,10.10
2019-04-22T09:50:03.377Z,7.93
2019-04-22T09:52:30.811Z,7.83
2019-04-22T09:55:10.976Z,9.00
2019-04-22T09:57:52.083Z,7.13
2019-04-22T10:00:02.253Z,7.67
2019-04-22T10:05:06.390Z,6.80
2019-04-22T10:07:27.237Z,7.33
2019-04-22T10:12:29.951Z,8.67
2019-04-22T10:17:17.791Z,6.87
2019-04-22T10:22:27.671Z,6.70
2019-04-22T10:24:45.025Z,6.37
2019-04-22T10:27:12.965Z,6.60
2019-04-22T10:29:54.295Z,6.90
2019-04-22T10:32:15.931Z,9.00
2019-04-22T10:34:32.903Z,7.20
2019-04-22T10:36:54.336Z,7.20
2019-04-22T10:39:18.379Z,8.07
2019-04-22T10:41:46.389Z,8.43
2019-04-22T10:44:15.136Z,6.63
2019-04-22T10:46:44.263Z,5.57
2019-04-22T10:49:12.630Z,6.50
2019-04-22T10:51:40.432Z,5.57
2019-04-22T10:54:09.429Z,6.70
2019-04-22T10:56:37.042Z,6.50
2019-04-22T10:59:04.810Z,6.67
2019-04-22T11:01:32.142Z,6.07
2019-04-22T11:03:59.640Z,6.53
2019-04-22T11:06:27.585Z,7.70
2019-04-22T11:08:59.997Z,6.63
2019-04-22T11:11:37.561Z,9.20
2019-04-22T11:13:53.733Z,6.43
2019-04-22T11:16:21.546Z,7.23
2019-04-22T11:18:49.633Z,6.67
2019-04-22T11:21:17.953Z,6.50
2019-04-22T11:23:46.837Z,5.73
2019-04-22T11:26:15.439Z,5.73
2019-04-22T11:28:43.409Z,6.53
2019-04-22T11:31:12.176Z,6.30
2019-04-22T11:33:40.625Z,6.47
2019-04-22T11:36:08.103Z,6.10
2019-04-22T11:38:39.011Z,6.30
2019-04-22T11:41:05.398Z,7.63
2019-04-22T11:43:34.712Z,7.50
2019-04-22T11:46:03.263Z,8.40
2019-04-22T11:48:31.150Z,6.47
2019-04-22T11:50:59.985Z,5.50
2019-04-22T11:53:28.921Z,9.60
2019-04-22T11:55:56.468Z,5.73
2019-04-22T11:58:24.632Z,5.87
2019-04-22T12:00:53.377Z,5.97
2019-04-22T12:03:21.220Z,5.60
2019-04-22T12:05:49.907Z,7.60
2019-04-22T12:08:17.508Z,6.13
2019-04-22T12:10:51.672Z,5.60
2019-04-22T12:13:13.841Z,4.83
2019-04-22T12:15:42.711Z,5.67
2019-04-22T12:18:11.192Z,5.23
2019-04-22T12:20:39.172Z,5.57
2019-04-22T12:23:07.389Z,6.13
2019-04-22T12:25:46.472Z,5.73
2019-04-22T12:28:05.341Z,6.53
2019-04-22T12:30:33.382Z,5.90
2019-04-22T12:33:02.237Z,5.50
2019-04-22T12:35:30.357Z,5.30
2019-04-22T12:38:02.574Z,4.90
2019-04-22T12:40:37.331Z,5.83
2019-04-22T12:42:57.527Z,5.67
2019-04-22T12:45:26.562Z,5.13
2019-04-22T12:47:54.036Z,6.07
2019-04-22T12:50:27.403Z,5.10
2019-04-22T12:52:57.289Z,8.20
2019-04-22T12:55:21.837Z,5.47
2019-04-22T12:57:53.195Z,5.57
2019-04-22T13:00:18.816Z,6.80
2019-04-22T13:02:47.305Z,5.70
2019-04-22T13:05:16.245Z,6.73
2019-04-22T13:07:44.247Z,6.40
2019-04-22T13:10:13.632Z,5.93
2019-04-22T13:12:42.627Z,5.47
2019-04-22T13:15:11.908Z,5.93
2019-04-22T13:17:39.847Z,6.23
2019-04-22T13:20:08.282Z,6.20
2019-04-22T13:22:36.889Z,5.50
2019-04-22T13:25:10.210Z,5.40
2019-04-22T13:27:39.238Z,7.10
2019-04-22T13:30:08.324Z,5.23
2019-04-22T13:32:36.783Z,8.43
2019-04-22T13:35:07.115Z,5.10
2019-04-22T13:37:35.062Z,5.93
2019-04-22T13:40:03.552Z,5.83
2019-04-22T13:42:31.529Z,6.10
2019-04-22T13:45:00.218Z,5.60
2019-04-22T13:47:42.339Z,5.43
2019-04-22T13:52:53.598Z,5.80
2019-04-22T13:55:34.653Z,7.13
2019-04-22T13:57:41.435Z,8.00
2019-04-22T13:59:57.865Z,5.70
2019-04-22T14:02:30.692Z,5.60
2019-04-22T14:04:59.178Z,5.27
2019-04-22T14:07:26.560Z,5.87
2019-04-22T14:09:54.133Z,5.70
2019-04-22T14:12:21.814Z,6.40
2019-04-22T14:14:50.583Z,6.07
2019-04-22T14:17:18.765Z,5.77
2019-04-22T14:19:46.604Z,6.47
2019-04-22T14:22:14.122Z,5.43
2019-04-22T14:24:42.597Z,5.60
2019-04-22T14:27:20.767Z,6.20
2019-04-22T14:29:39.789Z,5.90
2019-04-22T14:32:15.048Z,5.80
2019-04-22T14:34:36.456Z,6.10
2019-04-22T14:37:03.745Z,6.20
2019-04-22T14:39:31.149Z,5.67
2019-04-22T14:42:19.614Z,5.63
2019-04-22T14:47:19.572Z,5.90
2019-04-22T14:49:48.173Z,6.57
2019-04-22T14:52:15.151Z,5.50
2019-04-22T14:54:37.670Z,5.20
2019-04-22T14:56:54.146Z,6.30
2019-04-22T14:59:22.890Z,5.30
2019-04-22T15:01:51.608Z,6.00
2019-04-22T15:04:19.388Z,5.80
2019-04-22T15:06:48.904Z,7.23
2019-04-22T15:09:16.185Z,5.33
2019-04-22T15:11:55.744Z,6.10
2019-04-22T15:14:12.753Z,8.27
2019-04-22T15:16:57.250Z,5.00
2019-04-22T15:19:45.527Z,5.23
2019-04-22T15:22:12.973Z,5.90
2019-04-22T15:24:40.722Z,9.43
2019-04-22T15:27:08.763Z,5.60
2019-04-22T15:29:36.392Z,6.00
2019-04-22T15:32:05.190Z,6.20
2019-04-22T15:34:32.753Z,5.20
2019-04-22T15:37:00.161Z,7.20
2019-04-22T15:39:27.527Z,5.97
2019-04-22T15:42:04.297Z,5.47
2019-04-22T15:44:24.210Z,6.57
2019-04-22T15:46:53.213Z,5.47
2019-04-22T15:49:22.241Z,4.97
2019-04-22T15:51:49.720Z,5.83
2019-04-22T15:54:16.985Z,4.80
2019-04-22T15:56:44.511Z,5.10
2019-04-22T15:59:32.620Z,5.20
2019-04-22T16:01:42.606Z,6.43
2019-04-22T16:04:10.447Z,6.73
2019-04-22T16:06:38.861Z,5.27
2019-04-22T16:09:07.015Z,5.03
2019-04-22T16:11:34.297Z,8.03
2019-04-22T16:14:02.190Z,5.37
2019-04-22T16:16:30.501Z,5.10
2019-04-22T16:18:58.520Z,6.10
2019-04-22T16:21:32.723Z,5.10
2019-04-22T16:24:05.580Z,5.10
2019-04-22T16:26:40.367Z,4.83
2019-04-22T16:29:09.482Z,5.73
2019-04-22T16:31:37.699Z,4.97
2019-04-22T16:34:07.517Z,9.13
2019-04-22T16:36:34.583Z,4.93
2019-04-22T16:39:02.715Z,5.40
2019-04-22T16:41:30.688Z,4.87
2019-04-22T16:43:58.687Z,6.20
2019-04-22T16:46:27.660Z,4.47
2019-04-22T16:48:56.016Z,4.80
2019-04-22T16:51:24.415Z,5.13
2019-04-22T16:53:51.948Z,4.47
2019-04-22T16:56:20.523Z,8.93
2019-04-22T16:58:48.590Z,5.10
2019-04-22T17:01:30.482Z,5.50
2019-04-22T17:04:25.177Z,5.00
2019-04-22T17:06:53.720Z,5.03
2019-04-22T17:09:21.621Z,6.03
2019-04-22T17:11:49.864Z,5.53
2019-04-22T17:14:25.359Z,5.30
2019-04-22T17:16:46.401Z,5.90
2019-04-22T17:19:15.076Z,4.93
2019-04-22T17:21:43.689Z,4.70
2019-04-22T17:24:11.936Z,5.87
2019-04-22T17:26:40.044Z,7.10
2019-04-22T17:29:08.472Z,5.10
2019-04-22T17:31:36.526Z,9.20
2019-04-22T17:34:04.808Z,4.57
2019-04-22T17:36:32.175Z,4.80
2019-04-22T17:39:14.607Z,8.90
2019-04-22T17:41:50.459Z,6.20
2019-04-22T17:44:28.556Z,4.90
2019-04-22T17:46:48.256Z,5.67
2019-04-22T17:49:37.352Z,7.30
2019-04-22T17:52:31.953Z,7.40
2019-04-22T17:54:47.830Z,7.50
2019-04-22T17:57:15.612Z,9.13
2019-04-22T17:59:41.858Z,7.50
2019-04-22T18:02:12.903Z,7.67
2019-04-22T18:04:23.380Z,8.40
2019-04-22T18:07:19.174Z,7.93
2019-04-22T18:10:10.738Z,9.13
2019-04-22T18:12:12.325Z,7.93
2019-04-22T18:17:11.168Z,7.50
2019-04-22T18:19:35.162Z,7.33
2019-04-22T18:22:01.201Z,7.27
2019-04-22T18:24:24.179Z,7.47
2019-04-22T18:27:18.961Z,10.57
2019-04-22T18:29:33.340Z,9.33
2019-04-22T18:31:53.723Z,7.20
2019-04-22T18:34:26.660Z,8.53
2019-04-22T18:36:54.963Z,7.20
2019-04-22T18:39:33.400Z,8.10
2019-04-22T18:41:58.638Z,7.40
2019-04-22T18:44:34.832Z,7.53
2019-04-22T18:46:56.750Z,7.03
2019-04-22T18:49:30.751Z,7.77
2019-04-22T18:52:05.322Z,8.30
2019-04-22T18:54:36.209Z,7.50
2019-04-22T18:57:07.105Z,8.33
2019-04-22T18:59:18.498Z,8.40
2019-04-22T19:01:41.932Z,7.63
2019-04-22T19:04:18.884Z,7.37
2019-04-22T19:07:19.114Z,9.33
2019-04-22T19:09:35.001Z,8.07
2019-04-22T19:12:10.351Z,13.23
2019-04-22T19:14:33.553Z,9.47
2019-04-22T19:17:07.613Z,7.57
2019-04-22T19:19:43.529Z,6.93
2019-04-22T19:21:52.377Z,7.63
2019-04-22T19:24:22.832Z,7.37
2019-04-22T19:26:58.705Z,12.03
2019-04-22T19:29:28.517Z,7.37
2019-04-22T19:31:55.782Z,9.17
2019-04-22T19:34:23.402Z,7.57
2019-04-22T19:36:51.852Z,9.20
2019-04-22T19:39:13.143Z,7.70
2019-04-22T19:41:52.072Z,9.27
2019-04-22T19:44:25.015Z,9.83
2019-04-22T19:46:52.903Z,11.03
2019-04-22T19:49:24.569Z,10.73
2019-04-22T19:51:53.940Z,8.00
2019-04-22T19:54:15.372Z,9.57
2019-04-22T19:56:36.753Z,8.50
2019-04-22T19:59:02.080Z,12.87
2019-04-22T20:01:45.526Z,13.40
2019-04-22T20:04:23.042Z,10.20
2019-04-22T20:06:45.518Z,7.10
2019-04-22T20:09:20.732Z,10.33
2019-04-22T20:11:45.111Z,6.90
2019-04-22T20:14:12.729Z,8.30
2019-04-22T20:16:39.096Z,8.03
2019-04-22T20:19:14.269Z,9.03
2019-04-22T20:21:42.103Z,9.13
2019-04-22T20:23:56.544Z,7.93
2019-04-22T20:26:43.756Z,11.80
2019-04-22T20:29:05.131Z,11.87
2019-04-22T20:31:37.636Z,12.30
2019-04-22T20:34:12.939Z,11.43
2019-04-22T20:36:53.702Z,15.90
2019-04-22T20:38:59.294Z,13.87
2019-04-22T20:41:30.400Z,8.40
2019-04-22T20:44:04.967Z,9.90
2019-04-22T20:46:32.548Z,8.73
2019-04-22T20:49:00.618Z,8.80
2019-04-22T20:51:39.350Z,7.90
2019-04-22T20:54:02.692Z,8.40
2019-04-22T20:56:28.655Z,9.77
2019-04-22T20:58:56.160Z,8.40
2019-04-22T21:01:21.124Z,9.43
2019-04-22T21:03:41.602Z,10.20
2019-04-22T21:06:23.101Z,8.93
2019-04-22T21:08:54.645Z,8.37
2019-04-22T21:11:19.610Z,7.77
2019-04-22T21:13:50.471Z,8.03
2019-04-22T21:16:21.937Z,7.73
2019-04-22T21:18:43.782Z,9.67
2019-04-22T21:21:20.409Z,7.47
2019-04-22T21:23:41.058Z,9.17
2019-04-22T21:26:13.560Z,8.53
2019-04-22T21:28:44.338Z,8.70
2019-04-22T21:31:14.923Z,9.30
2019-04-22T21:33:44.765Z,7.60
2019-04-22T21:38:37.567Z,10.90
2019-04-22T21:41:09.937Z,8.73
2019-04-22T21:43:40.443Z,11.00
2019-04-22T21:46:08.780Z,9.17
2019-04-22T21:48:44.398Z,8.63
2019-04-22T21:51:04.838Z,13.70
2019-04-22T21:53:38.069Z,7.97
2019-04-22T21:56:23.637Z,14.83
2019-04-22T21:58:41.363Z,7.10
2019-04-22T22:01:15.129Z,10.77
2019-04-22T22:03:38.355Z,9.97
2019-04-22T22:05:56.897Z,8.33
2019-04-22T22:08:41.168Z,10.17
2019-04-22T22:11:03.655Z,10.47
2019-04-22T22:13:31.937Z,8.00
2019-04-22T22:15:56.326Z,12.37
2019-04-22T22:18:24.095Z,8.10
2019-04-22T22:23:34.436Z,6.93
2019-04-22T22:25:55.583Z,6.90
2019-04-22T22:28:42.049Z,10.47
2019-04-22T22:31:15.461Z,8.70
2019-04-22T22:33:25.744Z,11.60
2019-04-22T22:35:54.175Z,11.43
2019-04-22T22:38:19.765Z,10.67
2019-04-22T22:40:34.022Z,8.00
2019-04-22T22:42:59.831Z,6.97
2019-04-22T22:45:37.410Z,13.27
2019-04-22T22:48:21.849Z,11.10
2019-04-22T22:50:44.337Z,8.90
2019-04-22T22:55:46.395Z,10.47
2019-04-22T22:58:16.120Z,10.20
2019-04-22T23:00:39.436Z,8.50
2019-04-22T23:05:46.007Z,13.00
2019-04-22T23:08:16.593Z,13.10
2019-04-22T23:10:52.880Z,9.80
2019-04-22T23:13:14.621Z,7.60
2019-04-22T23:15:37.108Z,9.37
2019-04-22T23:17:46.049Z,9.13
2019-04-22T23:20:13.627Z,9.80
2019-04-22T23:23:07.857Z,10.70
2019-04-22T23:25:53.246Z,8.20
2019-04-22T23:28:00.095Z,7.23
2019-04-22T23:30:23.121Z,7.97
2019-04-22T23:33:01.242Z,8.93
2019-04-22T23:35:30.755Z,7.83
2019-04-22T23:37:57.110Z,9.17
2019-04-22T23:40:34.399Z,13.03
2019-04-22T23:43:07.203Z,10.27
2019-04-22T23:45:34.789Z,8.20
2019-04-22T23:47:47.302Z,10.93
2019-04-22T23:50:29.305Z,9.67
2019-04-22T23:53:00.585Z,14.50
2019-04-22T23:55:26.168Z,10.50
2019-04-22T23:57:57.134Z,8.43
